createdAt,value
2023-05-25T00:01:44.978Z,85.20
2023-05-25T00:04:17.571Z,85.20
2023-05-25T00:06:45.630Z,85.30
2023-05-25T00:09:12.936Z,85.60
2023-05-25T00:11:40.095Z,85.90
2023-05-25T00:14:08.468Z,86.00
2023-05-25T00:16:37.810Z,86.30
2023-05-25T00:19:10.765Z,86.60
2023-05-25T00:21:41.549Z,86.60
2023-05-25T00:24:08.653Z,86.70
2023-05-25T00:26:36.176Z,86.80
2023-05-25T00:29:04.501Z,86.60
2023-05-25T00:31:33.541Z,86.60
2023-05-25T00:34:01.194Z,86.60
2023-05-25T00:36:28.244Z,86.50
2023-05-25T00:38:55.487Z,86.20
2023-05-25T00:41:23.839Z,86.50
2023-05-25T00:43:50.951Z,86.40
2023-05-25T00:46:18.011Z,86.60
2023-05-25T00:48:46.199Z,86.70
2023-05-25T00:51:16.122Z,86.40
2023-05-25T00:53:43.416Z,86.50
2023-05-25T00:56:23.413Z,86.40
2023-05-25T00:58:54.629Z,86.20
2023-05-25T01:01:22.728Z,86.20
2023-05-25T01:03:54.765Z,86.10
2023-05-25T01:06:23.208Z,85.90
2023-05-25T01:08:56.967Z,86.00
2023-05-25T01:11:32.616Z,85.80
2023-05-25T01:14:00.023Z,85.60
2023-05-25T01:16:27.352Z,85.70
2023-05-25T01:18:54.823Z,85.60
2023-05-25T01:21:50.095Z,85.90
2023-05-25T01:24:32.482Z,86.00
2023-05-25T01:27:30.784Z,86.10
2023-05-25T01:29:59.726Z,86.10
2023-05-25T01:32:27.336Z,86.00
2023-05-25T01:34:57.011Z,85.70
2023-05-25T01:37:26.484Z,85.50
2023-05-25T01:39:53.552Z,85.30
2023-05-25T01:42:20.591Z,85.00
2023-05-25T01:44:47.943Z,85.10
2023-05-25T01:47:26.855Z,85.00
2023-05-25T01:50:04.805Z,85.30
2023-05-25T01:53:09.986Z,85.40
2023-05-25T01:55:54.360Z,85.80
2023-05-25T01:58:23.294Z,86.20
2023-05-25T02:00:52.693Z,86.20
2023-05-25T02:03:20.676Z,86.10
2023-05-25T02:05:49.569Z,86.10
2023-05-25T02:08:16.678Z,86.00
2023-05-25T02:10:43.724Z,86.00
2023-05-25T02:13:11.812Z,86.00
2023-05-25T02:15:38.879Z,85.80
2023-05-25T02:18:06.019Z,85.70
2023-05-25T02:20:33.259Z,86.00
2023-05-25T02:23:00.949Z,86.30
2023-05-25T02:25:28.069Z,86.60
2023-05-25T02:27:55.189Z,86.60
2023-05-25T02:30:22.419Z,86.70
2023-05-25T02:32:50.505Z,86.80
2023-05-25T02:35:18.060Z,87.00
2023-05-25T02:37:45.324Z,87.00
2023-05-25T02:40:14.736Z,86.70
2023-05-25T02:42:41.778Z,86.60
2023-05-25T02:45:13.293Z,86.60
2023-05-25T02:47:41.392Z,86.40
2023-05-25T02:50:09.210Z,86.20
2023-05-25T02:52:42.249Z,86.60
2023-05-25T02:55:13.729Z,86.50
2023-05-25T02:57:42.221Z,86.40
2023-05-25T03:00:14.789Z,86.40
2023-05-25T03:02:41.952Z,86.20
2023-05-25T03:05:09.588Z,86.10
2023-05-25T03:07:37.249Z,85.80
2023-05-25T03:10:04.643Z,85.50
2023-05-25T03:12:32.681Z,85.30
2023-05-25T03:14:59.793Z,85.10
2023-05-25T03:17:26.992Z,84.70
2023-05-25T03:19:54.222Z,84.40
2023-05-25T03:22:21.799Z,84.20
2023-05-25T03:24:50.325Z,84.10
2023-05-25T03:27:17.972Z,83.90
2023-05-25T03:29:45.854Z,84.00
2023-05-25T03:32:14.344Z,84.20
2023-05-25T03:34:41.642Z,84.40
2023-05-25T03:37:10.065Z,84.20
2023-05-25T03:39:37.520Z,84.30
2023-05-25T03:42:06.490Z,84.00
2023-05-25T03:44:33.746Z,84.00
2023-05-25T03:47:01.057Z,84.00
2023-05-25T03:49:28.840Z,83.60
2023-05-25T03:52:00.222Z,83.40
2023-05-25T03:54:27.743Z,83.30
2023-05-25T03:56:54.830Z,83.20
2023-05-25T03:59:22.006Z,83.40
2023-05-25T04:01:49.095Z,83.70
2023-05-25T04:04:16.198Z,84.00
2023-05-25T04:06:45.919Z,84.20
2023-05-25T04:09:13.049Z,85.00
2023-05-25T04:11:40.098Z,85.40
2023-05-25T04:14:07.613Z,86.00
2023-05-25T04:16:40.373Z,86.70
2023-05-25T04:19:11.018Z,87.30
2023-05-25T04:21:38.050Z,87.50
2023-05-25T04:24:06.709Z,87.90
2023-05-25T04:26:34.981Z,88.50
2023-05-25T04:29:03.437Z,88.70
2023-05-25T04:31:46.224Z,88.70
2023-05-25T04:34:15.126Z,88.80
2023-05-25T04:37:05.742Z,88.70
2023-05-25T04:39:33.342Z,88.90
2023-05-25T04:42:05.070Z,88.90
2023-05-25T04:44:34.310Z,88.60
2023-05-25T04:47:03.309Z,88.30
2023-05-25T04:49:34.382Z,87.90
2023-05-25T04:52:01.543Z,87.70
2023-05-25T04:54:30.608Z,87.50
2023-05-25T04:57:00.351Z,88.20
2023-05-25T04:59:27.626Z,87.70
2023-05-25T05:01:54.848Z,87.50
2023-05-25T05:04:22.157Z,87.20
2023-05-25T05:06:49.911Z,87.20
2023-05-25T05:09:49.846Z,87.40
2023-05-25T05:12:17.848Z,87.30
2023-05-25T05:14:48.745Z,87.10
2023-05-25T05:17:17.667Z,88.10
2023-05-25T05:19:45.806Z,87.60
2023-05-25T05:22:16.176Z,87.90
2023-05-25T05:24:45.374Z,87.30
2023-05-25T05:27:16.868Z,87.50
2023-05-25T05:29:47.638Z,86.80
2023-05-25T05:32:14.776Z,86.90
2023-05-25T05:34:42.020Z,86.20
2023-05-25T05:37:19.413Z,86.70
2023-05-25T05:39:46.651Z,86.30
2023-05-25T05:42:13.876Z,85.80
2023-05-25T05:44:41.001Z,85.10
2023-05-25T05:47:08.190Z,84.80
2023-05-25T05:49:35.275Z,84.80
2023-05-25T05:52:03.673Z,83.90
2023-05-25T05:54:31.498Z,83.10
2023-05-25T05:57:04.450Z,82.70
2023-05-25T05:59:31.724Z,83.50
2023-05-25T06:02:01.464Z,83.10
2023-05-25T06:04:29.372Z,82.80
2023-05-25T06:06:59.217Z,82.90
2023-05-25T06:09:26.748Z,82.80
2023-05-25T06:11:57.487Z,82.80
2023-05-25T06:14:28.787Z,82.00
2023-05-25T06:17:00.931Z,82.00
2023-05-25T06:19:28.440Z,83.40
2023-05-25T06:21:55.550Z,82.80
2023-05-25T06:24:22.685Z,81.80
2023-05-25T06:26:50.008Z,81.80
2023-05-25T06:29:17.940Z,81.20
2023-05-25T06:31:45.211Z,81.00
2023-05-25T06:34:12.757Z,82.00
2023-05-25T06:36:41.805Z,81.50
2023-05-25T06:39:10.412Z,81.80
2023-05-25T06:41:39.359Z,81.40
2023-05-25T06:44:07.639Z,80.90
2023-05-25T06:46:42.169Z,81.20
2023-05-25T06:49:09.826Z,80.10
2023-05-25T06:51:37.710Z,80.50
2023-05-25T06:54:04.946Z,79.80
2023-05-25T06:56:35.086Z,80.00
2023-05-25T06:59:02.242Z,79.30
2023-05-25T07:01:29.416Z,79.60
2023-05-25T07:03:56.542Z,78.70
2023-05-25T07:06:23.677Z,78.60
2023-05-25T07:08:50.788Z,77.70
2023-05-25T07:11:21.097Z,77.70
2023-05-25T07:13:48.713Z,77.40
2023-05-25T07:16:15.884Z,76.90
2023-05-25T07:18:43.242Z,77.10
2023-05-25T07:21:11.237Z,76.80
2023-05-25T07:23:41.178Z,77.60
2023-05-25T07:26:12.703Z,76.40
2023-05-25T07:28:39.862Z,75.90
2023-05-25T07:31:07.108Z,75.60
2023-05-25T07:33:34.534Z,74.60
2023-05-25T07:36:01.660Z,74.10
2023-05-25T07:38:28.925Z,72.70
2023-05-25T07:40:56.289Z,72.40
2023-05-25T07:43:24.102Z,72.10
2023-05-25T07:45:51.381Z,71.00
2023-05-25T07:48:18.691Z,71.40
2023-05-25T07:50:46.515Z,70.10
2023-05-25T07:53:13.906Z,69.80
2023-05-25T07:55:41.202Z,71.00
2023-05-25T07:58:08.770Z,71.80
2023-05-25T08:00:35.938Z,72.40
2023-05-25T08:03:03.422Z,71.90
2023-05-25T08:05:30.786Z,71.30
2023-05-25T08:07:58.032Z,71.00
2023-05-25T08:10:32.375Z,71.50
2023-05-25T08:13:01.139Z,71.30
2023-05-25T08:15:28.566Z,70.30
2023-05-25T08:17:56.907Z,70.00
2023-05-25T08:20:25.672Z,70.80
2023-05-25T08:22:55.604Z,70.70
2023-05-25T08:25:25.059Z,70.10
2023-05-25T08:27:52.394Z,69.30
2023-05-25T08:30:19.728Z,69.40
2023-05-25T08:32:47.467Z,69.30
2023-05-25T08:35:14.991Z,69.20
2023-05-25T08:37:43.713Z,68.90
2023-05-25T08:40:23.469Z,67.70
2023-05-25T08:42:53.211Z,67.00
2023-05-25T08:45:33.632Z,67.40
2023-05-25T08:48:04.591Z,65.80
2023-05-25T08:50:36.151Z,65.60
2023-05-25T08:53:08.489Z,63.40
2023-05-25T08:55:39.471Z,63.20
2023-05-25T08:58:19.909Z,62.50
2023-05-25T09:00:56.870Z,61.60
2023-05-25T09:03:24.909Z,61.70
2023-05-25T09:05:52.385Z,61.40
2023-05-25T09:08:21.821Z,60.60
2023-05-25T09:10:52.029Z,59.20
2023-05-25T09:13:23.396Z,58.00
2023-05-25T09:15:56.138Z,58.20
2023-05-25T09:21:12.490Z,58.60
2023-05-25T09:23:42.885Z,59.20
2023-05-25T09:26:11.551Z,58.70
2023-05-25T09:32:59.604Z,61.00
2023-05-25T09:35:35.841Z,59.30
2023-05-25T09:38:05.771Z,57.70
2023-05-25T09:40:35.231Z,60.30
2023-05-25T09:43:04.132Z,62.00
2023-05-25T09:45:45.521Z,60.30
2023-05-25T09:48:39.337Z,60.50
2023-05-25T09:51:08.906Z,57.90
2023-05-25T09:53:43.651Z,57.90
2023-05-25T09:56:12.702Z,57.90
2023-05-25T09:58:46.026Z,55.30
2023-05-25T10:01:13.316Z,56.50
2023-05-25T10:04:04.777Z,55.10
2023-05-25T10:06:41.338Z,55.70
2023-05-25T10:09:14.685Z,55.30
2023-05-25T10:11:44.110Z,55.20
2023-05-25T10:14:18.130Z,54.40
2023-05-25T10:16:57.281Z,55.40
2023-05-25T10:19:48.172Z,56.20
2023-05-25T10:22:26.702Z,54.80
2023-05-25T10:25:17.886Z,56.20
2023-05-25T10:28:02.373Z,55.90
2023-05-25T10:30:50.944Z,55.20
2023-05-25T10:33:27.741Z,54.50
2023-05-25T10:36:09.314Z,54.00
2023-05-25T10:38:51.851Z,54.60
2023-05-25T10:41:20.771Z,53.60
2023-05-25T10:43:48.435Z,52.20
2023-05-25T10:46:16.581Z,52.10
2023-05-25T10:48:49.012Z,50.50
2023-05-25T10:51:19.025Z,52.40
2023-05-25T10:53:47.702Z,52.00
2023-05-25T10:56:15.047Z,53.80
2023-05-25T10:58:44.327Z,53.80
2023-05-25T11:01:13.233Z,54.70
2023-05-25T11:03:58.890Z,53.70
2023-05-25T11:06:40.491Z,52.50
2023-05-25T11:09:23.282Z,53.30
2023-05-25T11:12:02.492Z,53.30
2023-05-25T11:14:30.433Z,51.80
2023-05-25T11:17:12.910Z,52.10
2023-05-25T11:19:47.925Z,50.20
2023-05-25T11:22:33.313Z,50.70
2023-05-25T11:25:02.097Z,51.10
2023-05-25T11:27:32.718Z,52.80
2023-05-25T11:30:00.626Z,51.30
2023-05-25T11:32:28.580Z,51.20
2023-05-25T11:34:58.520Z,50.40
2023-05-25T11:37:31.794Z,49.90
2023-05-25T11:39:59.162Z,49.80
2023-05-25T11:42:26.609Z,48.70
2023-05-25T11:44:53.803Z,47.30
2023-05-25T11:47:25.016Z,50.00
2023-05-25T11:49:55.777Z,50.90
2023-05-25T11:52:23.660Z,51.30
2023-05-25T11:54:51.163Z,49.40
2023-05-25T11:57:25.072Z,48.80
2023-05-25T11:59:54.626Z,48.60
2023-05-25T12:02:24.080Z,46.30
2023-05-25T12:04:57.811Z,47.00
2023-05-25T12:07:26.507Z,47.60
2023-05-25T12:10:08.800Z,47.20
2023-05-25T12:12:51.798Z,46.70
2023-05-25T12:15:24.156Z,47.10
2023-05-25T12:17:53.849Z,46.30
2023-05-25T12:20:21.575Z,45.30
2023-05-25T12:22:49.731Z,44.80
2023-05-25T12:25:21.667Z,45.10
2023-05-25T12:28:14.708Z,48.00
2023-05-25T12:30:42.005Z,49.20
2023-05-25T12:33:12.807Z,48.50
2023-05-25T12:35:50.460Z,47.30
2023-05-25T12:38:19.447Z,45.90
2023-05-25T12:40:47.224Z,45.90
2023-05-25T12:43:15.440Z,45.60
2023-05-25T12:45:43.719Z,46.00
2023-05-25T12:48:11.208Z,46.00
2023-05-25T12:50:38.449Z,44.90
2023-05-25T12:53:06.054Z,46.20
2023-05-25T12:55:35.936Z,46.70
2023-05-25T12:58:28.798Z,48.60
2023-05-25T13:00:56.074Z,49.80
2023-05-25T13:03:23.210Z,48.50
2023-05-25T13:05:51.649Z,47.30
2023-05-25T13:08:18.862Z,47.40
2023-05-25T13:10:51.150Z,49.20
2023-05-25T13:13:18.276Z,46.80
2023-05-25T13:15:48.677Z,48.30
2023-05-25T13:18:15.756Z,47.00
2023-05-25T13:20:43.219Z,48.30
2023-05-25T13:23:11.043Z,47.30
2023-05-25T13:25:38.289Z,46.70
2023-05-25T13:28:06.525Z,46.60
2023-05-25T13:30:33.929Z,46.10
2023-05-25T13:33:09.749Z,45.70
2023-05-25T13:35:58.125Z,44.40
2023-05-25T13:38:25.616Z,44.70
2023-05-25T13:40:53.167Z,44.80
2023-05-25T13:43:20.404Z,45.70
2023-05-25T13:45:47.930Z,45.00
2023-05-25T13:48:15.060Z,44.40
2023-05-25T13:50:42.649Z,44.90
2023-05-25T13:53:09.854Z,45.00
2023-05-25T13:55:38.641Z,45.30
2023-05-25T13:58:06.668Z,43.60
2023-05-25T14:00:34.035Z,44.90
2023-05-25T14:03:01.375Z,44.50
2023-05-25T14:05:30.333Z,43.20
2023-05-25T14:07:58.466Z,43.40
2023-05-25T14:10:25.807Z,45.50
2023-05-25T14:12:52.902Z,44.60
2023-05-25T14:15:20.161Z,44.10
2023-05-25T14:17:47.449Z,44.30
2023-05-25T14:20:20.982Z,45.60
2023-05-25T14:22:48.186Z,44.80
2023-05-25T14:25:15.255Z,44.20
2023-05-25T14:27:42.330Z,43.60
2023-05-25T14:30:09.970Z,43.80
2023-05-25T14:32:37.126Z,43.20
2023-05-25T14:35:04.345Z,44.20
2023-05-25T14:37:31.533Z,45.50
2023-05-25T14:40:00.775Z,46.10
2023-05-25T14:42:29.321Z,46.30
2023-05-25T14:44:57.080Z,46.80
2023-05-25T14:47:24.160Z,45.40
2023-05-25T14:49:51.332Z,45.30
2023-05-25T14:52:18.480Z,45.20
2023-05-25T14:54:45.821Z,46.60
2023-05-25T14:57:12.975Z,46.00
2023-05-25T14:59:40.125Z,47.30
2023-05-25T15:02:07.265Z,47.10
2023-05-25T15:04:34.445Z,46.40
2023-05-25T15:07:01.572Z,45.40
2023-05-25T15:09:28.689Z,46.00
2023-05-25T15:11:55.782Z,45.90
2023-05-25T15:14:22.921Z,45.60
2023-05-25T15:16:50.042Z,46.00
2023-05-25T15:19:17.792Z,46.80
2023-05-25T15:21:45.202Z,48.00
2023-05-25T15:24:16.648Z,46.30
2023-05-25T15:26:43.895Z,46.90
2023-05-25T15:29:10.994Z,46.20
2023-05-25T15:31:38.105Z,46.70
2023-05-25T15:34:05.209Z,47.00
2023-05-25T15:36:32.871Z,46.90
2023-05-25T15:39:00.186Z,45.80
2023-05-25T15:41:27.505Z,45.00
2023-05-25T15:44:01.161Z,45.70
2023-05-25T15:46:28.501Z,45.90
2023-05-25T15:48:57.763Z,45.50
2023-05-25T15:51:25.021Z,45.50
2023-05-25T15:53:56.345Z,46.60
2023-05-25T15:56:23.731Z,46.20
2023-05-25T15:58:50.811Z,46.10
2023-05-25T16:01:18.026Z,46.30
2023-05-25T16:03:45.156Z,47.10
2023-05-25T16:06:12.362Z,48.40
2023-05-25T16:08:39.534Z,48.10
2023-05-25T16:11:06.695Z,49.40
2023-05-25T16:13:33.747Z,49.40
2023-05-25T16:16:06.805Z,50.30
2023-05-25T16:18:39.819Z,50.20
2023-05-25T16:21:10.807Z,50.40
2023-05-25T16:23:46.431Z,50.50
2023-05-25T16:26:13.576Z,51.20
2023-05-25T16:28:40.760Z,50.50
2023-05-25T16:31:21.108Z,50.20
2023-05-25T16:33:49.498Z,50.60
2023-05-25T16:36:41.886Z,51.60
2023-05-25T16:39:12.172Z,53.40
2023-05-25T16:45:58.978Z,52.50
2023-05-25T16:48:32.596Z,54.10
2023-05-25T16:50:59.885Z,54.50
2023-05-25T16:53:27.084Z,54.10
2023-05-25T16:55:57.469Z,55.50
2023-05-25T16:58:30.405Z,54.80
2023-05-25T17:01:00.399Z,54.50
2023-05-25T17:03:35.236Z,55.20
2023-05-25T17:06:09.894Z,55.10
2023-05-25T17:08:37.048Z,56.30
2023-05-25T17:11:04.177Z,56.70
2023-05-25T17:13:31.374Z,56.00
2023-05-25T17:16:09.510Z,56.20
2023-05-25T17:18:53.439Z,56.60
2023-05-25T17:21:23.684Z,57.10
2023-05-25T17:23:56.107Z,57.20
2023-05-25T17:26:23.284Z,57.20
2023-05-25T17:28:51.503Z,58.10
2023-05-25T17:31:18.869Z,57.70
2023-05-25T17:33:47.239Z,57.70
2023-05-25T17:36:14.427Z,58.50
2023-05-25T17:38:44.914Z,59.00
2023-05-25T17:41:12.074Z,59.00
2023-05-25T17:43:39.364Z,58.10
2023-05-25T17:46:07.549Z,58.90
2023-05-25T17:48:34.798Z,59.30
2023-05-25T17:51:03.154Z,59.10
2023-05-25T17:53:30.320Z,58.20
2023-05-25T17:55:57.382Z,58.20
2023-05-25T17:58:24.567Z,59.00
2023-05-25T18:00:52.108Z,59.70
2023-05-25T18:03:25.669Z,60.50
2023-05-25T18:05:54.090Z,60.00
2023-05-25T18:08:24.529Z,59.70
2023-05-25T18:10:53.037Z,60.40
2023-05-25T18:13:23.331Z,60.90
2023-05-25T18:15:50.652Z,61.90
2023-05-25T18:18:24.938Z,61.20
2023-05-25T18:20:52.269Z,61.50
2023-05-25T18:23:22.019Z,62.00
2023-05-25T18:25:49.096Z,62.40
2023-05-25T18:28:16.260Z,61.30
2023-05-25T18:30:43.468Z,62.20
2023-05-25T18:33:10.891Z,62.30
2023-05-25T18:35:38.379Z,62.80
2023-05-25T18:38:06.843Z,64.10
2023-05-25T18:40:34.117Z,62.80
2023-05-25T18:43:01.183Z,62.00
2023-05-25T18:45:28.256Z,62.20
2023-05-25T18:47:55.551Z,63.50
2023-05-25T18:50:22.615Z,62.70
2023-05-25T18:52:51.552Z,63.50
2023-05-25T18:55:19.351Z,63.90
2023-05-25T18:57:47.042Z,64.20
2023-05-25T19:00:14.746Z,64.20
2023-05-25T19:02:59.540Z,63.60
2023-05-25T19:05:26.716Z,64.10
2023-05-25T19:07:58.930Z,63.80
2023-05-25T19:10:28.415Z,64.70
2023-05-25T19:12:55.922Z,64.50
2023-05-25T19:15:50.560Z,65.30
2023-05-25T19:18:17.814Z,66.40
2023-05-25T19:20:45.033Z,66.40
2023-05-25T19:23:12.276Z,67.40
2023-05-25T19:25:39.428Z,67.70
2023-05-25T19:28:06.639Z,66.50
2023-05-25T19:30:33.749Z,67.10
2023-05-25T19:33:00.931Z,67.80
2023-05-25T19:35:28.012Z,67.80
2023-05-25T19:37:55.127Z,67.10
2023-05-25T19:40:22.553Z,68.30
2023-05-25T19:42:49.940Z,68.50
2023-05-25T19:45:19.400Z,68.20
2023-05-25T19:47:47.562Z,69.30
2023-05-25T19:50:14.909Z,68.10
2023-05-25T19:52:42.076Z,68.50
2023-05-25T19:55:09.670Z,69.00
2023-05-25T19:57:36.938Z,69.00
2023-05-25T20:00:05.944Z,68.50
2023-05-25T20:03:04.397Z,68.30
2023-05-25T20:05:36.388Z,68.80
2023-05-25T20:08:06.026Z,69.40
2023-05-25T20:10:38.900Z,70.10
2023-05-25T20:13:07.677Z,70.00
2023-05-25T20:15:35.701Z,70.70
2023-05-25T20:18:03.780Z,71.10
2023-05-25T20:20:31.507Z,71.70
2023-05-25T20:23:01.686Z,71.70
2023-05-25T20:25:30.483Z,71.70
2023-05-25T20:27:59.165Z,71.80
2023-05-25T20:30:28.492Z,72.40
2023-05-25T20:33:11.054Z,72.40
2023-05-25T20:35:44.200Z,72.70
2023-05-25T20:38:19.003Z,72.70
2023-05-25T20:40:47.852Z,72.60
2023-05-25T20:43:15.382Z,72.20
2023-05-25T20:48:53.337Z,72.60
2023-05-25T20:51:23.626Z,72.90
2023-05-25T20:53:55.256Z,73.10
2023-05-25T20:56:23.057Z,73.00
2023-05-25T20:58:50.232Z,73.20
2023-05-25T21:02:30.222Z,73.20
2023-05-25T21:04:57.561Z,73.20
2023-05-25T21:07:24.721Z,73.50
2023-05-25T21:09:51.991Z,74.10
2023-05-25T21:12:19.157Z,74.10
2023-05-25T21:14:46.408Z,74.00
2023-05-25T21:17:15.023Z,74.30
2023-05-25T21:19:42.196Z,74.40
2023-05-25T21:22:11.430Z,74.10
2023-05-25T21:24:38.784Z,74.00
2023-05-25T21:27:06.125Z,74.20
2023-05-25T21:29:38.548Z,74.50
2023-05-25T21:32:06.810Z,74.50
2023-05-25T21:34:34.804Z,74.50
2023-05-25T21:37:01.978Z,74.50
2023-05-25T21:39:29.230Z,74.50
2023-05-25T21:42:15.360Z,74.50
2023-05-25T21:44:42.528Z,74.70
2023-05-25T21:47:09.723Z,75.00
2023-05-25T21:49:36.902Z,75.20
2023-05-25T21:52:18.669Z,75.40
2023-05-25T21:54:45.819Z,75.50
2023-05-25T21:57:12.971Z,75.70
2023-05-25T21:59:40.201Z,76.00
2023-05-25T22:02:07.412Z,76.10
2023-05-25T22:04:34.540Z,76.20
2023-05-25T22:07:01.714Z,76.10
2023-05-25T22:09:29.866Z,76.00
2023-05-25T22:11:57.023Z,76.00
2023-05-25T22:14:24.220Z,76.30
2023-05-25T22:16:51.443Z,76.80
2023-05-25T22:19:18.737Z,76.80
2023-05-25T22:21:46.295Z,76.90
2023-05-25T22:24:13.540Z,77.20
2023-05-25T22:26:40.774Z,77.60
2023-05-25T22:29:07.921Z,77.40
2023-05-25T22:31:35.149Z,77.70
2023-05-25T22:34:02.398Z,77.90
2023-05-25T22:36:29.589Z,77.90
2023-05-25T22:38:56.801Z,77.80
2023-05-25T22:41:23.944Z,77.80
2023-05-25T22:43:51.091Z,77.80
2023-05-25T22:46:18.496Z,77.90
2023-05-25T22:48:45.655Z,78.20
2023-05-25T22:51:12.898Z,78.30
2023-05-25T22:53:40.022Z,78.30
2023-05-25T22:56:07.553Z,78.40
2023-05-25T22:58:34.697Z,78.40
2023-05-25T23:01:01.884Z,78.40
2023-05-25T23:03:30.330Z,78.70
2023-05-25T23:05:57.634Z,78.40
2023-05-25T23:08:24.775Z,78.60
2023-05-25T23:10:51.912Z,78.60
2023-05-25T23:13:21.415Z,78.70
2023-05-25T23:15:48.710Z,78.90
2023-05-25T23:18:15.950Z,79.00
2023-05-25T23:20:43.216Z,79.20
2023-05-25T23:23:10.440Z,79.30
2023-05-25T23:25:37.592Z,79.10
2023-05-25T23:28:04.782Z,79.10
2023-05-25T23:30:31.961Z,79.40
2023-05-25T23:33:00.287Z,79.40
2023-05-25T23:35:27.841Z,79.60
2023-05-25T23:37:55.047Z,79.70
2023-05-25T23:40:22.274Z,79.90
2023-05-25T23:42:49.439Z,80.00
2023-05-25T23:45:16.977Z,80.30
2023-05-25T23:47:44.217Z,80.40
2023-05-25T23:50:11.479Z,80.50
2023-05-25T23:52:38.685Z,80.60
2023-05-25T23:55:06.672Z,80.80
2023-05-25T23:57:33.834Z,81.20
